createdAt,value
2023-02-26T00:01:40.144Z,5.25
2023-02-26T00:04:07.675Z,5.32
2023-02-26T00:06:36.982Z,5.90
2023-02-26T00:09:05.499Z,4.15
2023-02-26T00:11:33.248Z,5.03
2023-02-26T00:14:00.073Z,5.03
2023-02-26T00:16:28.657Z,3.53
2023-02-26T00:18:57.064Z,7.70
2023-02-26T00:21:25.779Z,3.33
2023-02-26T00:23:53.319Z,4.15
2023-02-26T00:26:20.794Z,4.35
2023-02-26T00:28:47.736Z,5.95
2023-02-26T00:31:18.480Z,2.70
2023-02-26T00:33:45.376Z,4.80
2023-02-26T00:36:22.569Z,5.05
2023-02-26T00:39:07.769Z,6.50
2023-02-26T00:41:36.187Z,3.00
2023-02-26T00:44:03.141Z,3.83
2023-02-26T00:46:42.546Z,3.83
2023-02-26T00:49:36.309Z,5.63
2023-02-26T00:52:05.757Z,4.20
2023-02-26T00:54:32.777Z,6.45
2023-02-26T00:56:59.647Z,6.30
2023-02-26T00:59:26.352Z,4.45
2023-02-26T01:01:53.247Z,5.97
2023-02-26T01:04:22.650Z,5.68
2023-02-26T01:06:52.089Z,2.95
2023-02-26T01:09:29.852Z,2.60
2023-02-26T01:12:01.838Z,6.00
2023-02-26T01:14:29.285Z,5.57
2023-02-26T01:17:02.446Z,5.55
2023-02-26T01:19:49.912Z,4.13
2023-02-26T01:22:22.994Z,4.70
2023-02-26T01:25:03.434Z,3.55
2023-02-26T01:27:30.498Z,4.63
2023-02-26T01:29:57.269Z,6.10
2023-02-26T01:32:39.060Z,3.72
2023-02-26T01:35:18.071Z,5.05
2023-02-26T01:38:05.892Z,5.85
2023-02-26T01:40:50.843Z,3.67
2023-02-26T01:43:23.141Z,3.72
2023-02-26T01:46:00.032Z,3.08
2023-02-26T01:48:36.504Z,4.30
2023-02-26T01:51:03.086Z,4.15
2023-02-26T01:53:29.684Z,4.25
2023-02-26T01:56:03.359Z,4.20
2023-02-26T01:58:33.467Z,5.90
2023-02-26T02:01:00.892Z,4.75
2023-02-26T02:03:28.389Z,6.10
2023-02-26T02:06:04.875Z,4.07
2023-02-26T02:08:35.454Z,2.92
2023-02-26T02:11:04.179Z,3.88
2023-02-26T02:13:42.146Z,4.07
2023-02-26T02:16:20.514Z,4.97
2023-02-26T02:19:19.144Z,3.45
2023-02-26T02:22:23.809Z,3.95
2023-02-26T02:25:14.582Z,4.30
2023-02-26T02:28:03.645Z,4.25
2023-02-26T02:30:38.813Z,3.05
2023-02-26T02:33:12.639Z,2.70
2023-02-26T02:35:46.453Z,5.60
2023-02-26T02:38:20.096Z,6.00
2023-02-26T02:40:50.779Z,2.78
2023-02-26T02:43:19.945Z,3.58
2023-02-26T02:46:04.602Z,4.93
2023-02-26T02:48:33.980Z,3.70
2023-02-26T02:51:04.954Z,3.88
2023-02-26T02:53:47.951Z,4.10
2023-02-26T02:56:20.690Z,4.82
2023-02-26T02:58:52.004Z,4.07
2023-02-26T03:01:20.185Z,4.38
2023-02-26T03:04:09.571Z,3.42
2023-02-26T03:06:37.147Z,3.28
2023-02-26T03:09:05.844Z,3.70
2023-02-26T03:11:33.815Z,4.28
2023-02-26T03:14:01.874Z,7.88
2023-02-26T03:17:12.238Z,4.35
2023-02-26T03:20:00.156Z,2.17
2023-02-26T03:23:07.788Z,3.33
2023-02-26T03:25:43.708Z,4.60
2023-02-26T03:28:21.503Z,3.42
2023-02-26T03:31:02.673Z,3.13
2023-02-26T03:33:38.457Z,3.33
2023-02-26T03:36:11.436Z,3.55
2023-02-26T03:38:49.645Z,4.40
2023-02-26T03:41:22.562Z,4.18
2023-02-26T03:43:53.036Z,2.60
2023-02-26T03:46:27.473Z,3.30
2023-02-26T03:48:56.088Z,4.25
2023-02-26T03:51:24.640Z,4.30
2023-02-26T03:54:16.130Z,2.33
2023-02-26T03:56:47.376Z,4.72
2023-02-26T03:59:14.963Z,4.90
2023-02-26T04:01:50.444Z,6.20
2023-02-26T04:04:28.001Z,2.78
2023-02-26T04:06:55.212Z,5.85
2023-02-26T04:09:22.502Z,5.50
2023-02-26T04:11:49.856Z,3.88
2023-02-26T04:14:16.366Z,4.07
2023-02-26T04:16:44.360Z,5.25
2023-02-26T04:19:11.081Z,5.28
2023-02-26T04:21:38.184Z,3.83
2023-02-26T04:24:06.058Z,4.13
2023-02-26T04:26:34.078Z,4.10
2023-02-26T04:29:01.069Z,4.85
2023-02-26T04:31:27.726Z,7.82
2023-02-26T04:33:54.728Z,2.83
2023-02-26T04:36:21.510Z,4.63
2023-02-26T04:38:48.034Z,3.75
2023-02-26T04:41:15.511Z,5.35
2023-02-26T04:43:43.942Z,5.40
2023-02-26T04:46:24.696Z,4.35
2023-02-26T04:48:51.608Z,5.88
2023-02-26T04:51:18.250Z,3.33
2023-02-26T04:53:45.328Z,4.07
2023-02-26T04:56:11.960Z,5.10
2023-02-26T04:58:38.463Z,3.75
2023-02-26T05:03:35.772Z,3.28
2023-02-26T05:06:02.365Z,3.30
2023-02-26T05:08:28.902Z,4.45
2023-02-26T05:10:55.388Z,3.72
2023-02-26T05:13:21.958Z,4.35
2023-02-26T05:15:48.521Z,1.73
2023-02-26T05:18:15.064Z,3.40
2023-02-26T05:20:41.679Z,4.88
2023-02-26T05:23:08.214Z,2.90
2023-02-26T05:25:34.689Z,2.70
2023-02-26T05:28:01.415Z,3.92
2023-02-26T05:30:28.822Z,3.45
2023-02-26T05:32:55.393Z,2.05
2023-02-26T05:35:21.883Z,5.43
2023-02-26T05:37:48.661Z,2.65
2023-02-26T05:40:15.359Z,2.65
2023-02-26T05:42:41.948Z,2.55
2023-02-26T05:45:08.836Z,3.85
2023-02-26T05:47:35.665Z,3.38
2023-02-26T05:50:03.299Z,3.05
2023-02-26T05:52:29.785Z,3.80
2023-02-26T05:54:56.272Z,2.45
2023-02-26T05:57:23.473Z,3.22
2023-02-26T05:59:50.629Z,4.63
2023-02-26T06:02:17.393Z,5.60
2023-02-26T06:04:44.101Z,3.60
2023-02-26T06:07:10.586Z,6.05
2023-02-26T06:09:37.078Z,3.92
2023-02-26T06:12:03.687Z,4.13
2023-02-26T06:14:30.182Z,2.45
2023-02-26T06:16:56.663Z,3.90
2023-02-26T06:19:23.144Z,3.60
2023-02-26T06:21:49.693Z,1.98
2023-02-26T06:24:16.317Z,4.45
2023-02-26T06:26:42.831Z,4.28
2023-02-26T06:29:09.310Z,4.88
2023-02-26T06:31:35.898Z,3.25
2023-02-26T06:34:02.491Z,7.93
2023-02-26T06:36:29.080Z,4.63
2023-02-26T06:38:55.570Z,3.95
2023-02-26T06:41:22.089Z,2.58
2023-02-26T06:43:48.571Z,4.65
2023-02-26T06:46:15.141Z,4.88
2023-02-26T06:48:41.623Z,5.32
2023-02-26T06:51:08.130Z,2.67
2023-02-26T06:53:34.659Z,2.95
2023-02-26T06:56:01.198Z,3.33
2023-02-26T06:58:27.703Z,3.28
2023-02-26T07:00:54.546Z,4.47
2023-02-26T07:03:21.107Z,2.80
2023-02-26T07:05:47.674Z,3.80
2023-02-26T07:08:14.646Z,3.25
2023-02-26T07:10:41.669Z,3.70
2023-02-26T07:13:08.579Z,5.00
2023-02-26T07:15:35.275Z,3.53
2023-02-26T07:18:01.833Z,4.15
2023-02-26T07:20:29.646Z,3.65
2023-02-26T07:22:56.295Z,4.65
2023-02-26T07:25:22.813Z,4.53
2023-02-26T07:27:49.314Z,3.40
2023-02-26T07:30:16.304Z,4.22
2023-02-26T07:32:43.144Z,4.05
2023-02-26T07:35:09.925Z,4.65
2023-02-26T07:37:36.412Z,2.70
2023-02-26T07:40:03.533Z,3.92
2023-02-26T07:42:30.002Z,4.55
2023-02-26T07:44:56.635Z,4.93
2023-02-26T07:47:23.169Z,3.13
2023-02-26T07:49:49.627Z,4.25
2023-02-26T07:52:16.690Z,2.85
2023-02-26T07:54:43.188Z,3.58
2023-02-26T07:57:09.747Z,3.15
2023-02-26T07:59:36.276Z,2.05
2023-02-26T08:02:02.784Z,4.20
2023-02-26T08:04:29.901Z,4.10
2023-02-26T08:06:57.316Z,3.58
2023-02-26T08:09:23.816Z,2.65
2023-02-26T08:11:50.363Z,3.05
2023-02-26T08:14:16.929Z,3.88
2023-02-26T08:16:43.524Z,4.53
2023-02-26T08:19:10.151Z,3.97
2023-02-26T08:21:36.660Z,2.30
2023-02-26T08:24:03.211Z,4.95
2023-02-26T08:26:29.746Z,4.22
2023-02-26T08:28:56.260Z,4.07
2023-02-26T08:31:22.882Z,2.17
2023-02-26T08:33:49.391Z,4.82
2023-02-26T08:36:15.887Z,4.00
2023-02-26T08:38:42.350Z,6.38
2023-02-26T08:41:08.913Z,4.20
2023-02-26T08:43:35.444Z,3.75
2023-02-26T08:46:02.046Z,5.25
2023-02-26T08:48:28.832Z,3.75
2023-02-26T08:50:55.326Z,2.50
2023-02-26T08:53:21.793Z,4.30
2023-02-26T08:55:52.701Z,3.75
2023-02-26T08:58:20.534Z,2.25
2023-02-26T09:00:47.359Z,2.90
2023-02-26T09:03:14.065Z,3.28
2023-02-26T09:05:40.951Z,3.65
2023-02-26T09:08:08.273Z,4.47
2023-02-26T09:10:35.029Z,4.70
2023-02-26T09:13:01.505Z,4.95
2023-02-26T09:15:28.086Z,7.43
2023-02-26T09:17:57.996Z,4.68
2023-02-26T09:20:24.506Z,3.03
2023-02-26T09:22:51.221Z,3.70
2023-02-26T09:25:17.822Z,3.38
2023-02-26T09:27:44.443Z,4.60
2023-02-26T09:30:11.707Z,3.97
2023-02-26T09:32:38.563Z,5.22
2023-02-26T09:35:05.598Z,4.65
2023-02-26T09:37:32.187Z,3.78
2023-02-26T09:39:58.697Z,3.15
2023-02-26T09:42:40.569Z,2.15
2023-02-26T09:45:13.063Z,3.80
2023-02-26T09:47:46.572Z,3.30
2023-02-26T09:50:49.849Z,4.90
2023-02-26T09:53:28.230Z,3.10
2023-02-26T09:56:00.114Z,3.95
2023-02-26T09:58:30.516Z,3.50
2023-02-26T10:01:03.998Z,3.70
2023-02-26T10:03:57.983Z,4.28
2023-02-26T10:06:34.262Z,2.55
2023-02-26T10:09:24.515Z,4.20
2023-02-26T10:12:03.578Z,3.20
2023-02-26T10:15:04.474Z,2.30
2023-02-26T10:17:53.073Z,3.35
2023-02-26T10:20:24.497Z,3.90
2023-02-26T10:23:20.513Z,4.25
2023-02-26T10:25:58.943Z,3.10
2023-02-26T10:28:49.332Z,4.05
2023-02-26T10:31:23.368Z,3.07
2023-02-26T10:34:16.809Z,2.60
2023-02-26T10:37:03.117Z,2.63
2023-02-26T10:39:33.619Z,2.80
2023-02-26T10:42:04.898Z,3.33
2023-02-26T10:44:45.771Z,2.72
2023-02-26T10:47:21.930Z,2.30
2023-02-26T10:50:12.163Z,3.83
2023-02-26T10:52:38.918Z,3.47
2023-02-26T10:55:18.587Z,2.08
2023-02-26T10:57:52.740Z,2.42
2023-02-26T11:00:21.091Z,4.32
2023-02-26T11:02:51.967Z,2.63
2023-02-26T11:05:24.478Z,4.88
2023-02-26T11:07:57.038Z,2.97
2023-02-26T11:10:25.949Z,2.25
2023-02-26T11:12:53.833Z,3.40
2023-02-26T11:15:22.785Z,6.03
2023-02-26T11:17:53.878Z,4.78
2023-02-26T11:23:03.826Z,4.63
2023-02-26T11:25:32.840Z,2.83
2023-02-26T11:28:03.659Z,1.97
2023-02-26T11:30:35.150Z,2.95
2023-02-26T11:33:13.018Z,3.42
2023-02-26T11:35:39.569Z,3.25
2023-02-26T11:38:06.215Z,2.70
2023-02-26T11:40:42.740Z,2.00
2023-02-26T11:43:14.438Z,4.15
2023-02-26T11:45:43.391Z,3.17
2023-02-26T11:48:14.092Z,4.88
2023-02-26T11:50:46.703Z,5.13
2023-02-26T11:53:21.394Z,3.15
2023-02-26T11:55:52.334Z,4.22
2023-02-26T11:58:23.353Z,4.35
2023-02-26T12:03:24.135Z,2.88
2023-02-26T12:05:53.243Z,5.25
2023-02-26T12:08:30.559Z,5.18
2023-02-26T12:10:59.715Z,3.05
2023-02-26T12:13:48.646Z,4.05
2023-02-26T12:16:23.954Z,3.25
2023-02-26T12:18:56.598Z,3.00
2023-02-26T12:22:07.554Z,3.03
2023-02-26T12:24:54.797Z,2.33
2023-02-26T12:27:34.677Z,5.20
2023-02-26T12:30:26.183Z,2.40
2023-02-26T12:33:13.743Z,4.47
2023-02-26T12:35:56.492Z,6.40
2023-02-26T12:38:33.730Z,4.25
2023-02-26T12:41:29.131Z,2.85
2023-02-26T12:44:01.244Z,3.42
2023-02-26T12:46:43.287Z,2.13
2023-02-26T12:49:32.432Z,4.50
2023-02-26T12:52:31.702Z,2.50
2023-02-26T12:55:29.734Z,4.93
2023-02-26T12:58:22.802Z,3.63
2023-02-26T13:01:05.209Z,2.80
2023-02-26T13:03:40.395Z,2.75
2023-02-26T13:06:25.470Z,2.72
2023-02-26T13:09:17.068Z,3.05
2023-02-26T13:11:50.989Z,3.78
2023-02-26T13:14:51.611Z,3.65
2023-02-26T13:17:33.224Z,3.78
2023-02-26T13:20:03.305Z,2.30
2023-02-26T13:22:38.140Z,5.35
2023-02-26T13:25:12.719Z,3.42
2023-02-26T13:27:39.772Z,3.72
2023-02-26T13:30:23.690Z,4.25
2023-02-26T13:32:52.458Z,3.10
2023-02-26T13:35:25.270Z,2.88
2023-02-26T13:37:55.395Z,2.75
2023-02-26T13:40:41.015Z,9.90
2023-02-26T13:43:28.313Z,3.50
2023-02-26T13:46:06.828Z,7.43
2023-02-26T13:49:08.054Z,4.97
2023-02-26T13:51:45.167Z,4.65
2023-02-26T13:54:19.166Z,2.40
2023-02-26T13:56:48.874Z,1.95
2023-02-26T13:59:20.461Z,2.50
2023-02-26T14:01:50.241Z,2.95
2023-02-26T14:04:19.801Z,1.63
2023-02-26T14:06:57.545Z,4.07
2023-02-26T14:09:24.202Z,2.47
2023-02-26T14:12:03.530Z,2.83
2023-02-26T14:15:00.192Z,2.90
2023-02-26T14:17:36.050Z,2.45
2023-02-26T14:20:21.454Z,1.98
2023-02-26T14:22:52.459Z,3.80
2023-02-26T14:28:41.194Z,2.45
2023-02-26T14:31:22.286Z,2.92
2023-02-26T14:34:06.396Z,3.15
2023-02-26T14:36:42.788Z,2.60
2023-02-26T14:39:26.313Z,2.22
2023-02-26T14:42:00.370Z,5.80
2023-02-26T14:44:30.342Z,4.40
2023-02-26T14:46:57.210Z,2.38
2023-02-26T14:49:32.060Z,4.47
2023-02-26T14:52:14.122Z,2.85
2023-02-26T14:54:53.706Z,2.58
2023-02-26T14:57:47.995Z,1.67
2023-02-26T15:00:33.561Z,3.47
2023-02-26T15:03:13.676Z,2.67
2023-02-26T15:05:53.276Z,4.40
2023-02-26T15:08:35.436Z,4.47
2023-02-26T15:11:24.354Z,4.15
2023-02-26T15:14:13.040Z,2.13
2023-02-26T15:16:57.384Z,1.88
2023-02-26T15:19:56.351Z,2.28
2023-02-26T15:23:10.162Z,3.13
2023-02-26T15:25:39.360Z,2.22
2023-02-26T15:28:07.449Z,3.40
2023-02-26T15:30:34.529Z,3.25
2023-02-26T15:33:04.652Z,3.40
2023-02-26T15:35:32.259Z,2.07
2023-02-26T15:38:01.338Z,4.53
2023-02-26T15:40:31.073Z,1.45
2023-02-26T15:42:58.678Z,2.78
2023-02-26T15:45:34.449Z,4.00
2023-02-26T15:48:03.655Z,1.30
2023-02-26T15:50:34.452Z,2.28
2023-02-26T15:53:03.527Z,3.08
2023-02-26T15:55:36.843Z,2.60
2023-02-26T15:58:04.237Z,1.67
2023-02-26T16:00:33.284Z,2.83
2023-02-26T16:02:59.950Z,3.85
2023-02-26T16:05:27.562Z,2.20
2023-02-26T16:07:54.852Z,1.17
2023-02-26T16:10:38.078Z,3.70
2023-02-26T16:13:06.072Z,1.15
2023-02-26T16:15:35.843Z,2.47
2023-02-26T16:18:16.347Z,2.05
2023-02-26T16:20:46.077Z,2.90
2023-02-26T16:23:16.034Z,2.88
2023-02-26T16:25:52.808Z,2.60
2023-02-26T16:28:28.302Z,1.75
2023-02-26T16:30:58.029Z,4.55
2023-02-26T16:33:26.445Z,5.07
2023-02-26T16:35:56.318Z,3.20
2023-02-26T16:38:34.154Z,2.10
2023-02-26T16:41:06.169Z,3.42
2023-02-26T16:43:44.835Z,1.77
2023-02-26T16:46:15.352Z,2.75
2023-02-26T16:49:07.240Z,1.63
2023-02-26T16:51:38.301Z,1.83
2023-02-26T16:54:09.484Z,2.65
2023-02-26T16:56:41.434Z,2.30
2023-02-26T16:59:14.310Z,3.83
2023-02-26T17:02:02.298Z,2.97
2023-02-26T17:04:31.915Z,2.83
2023-02-26T17:07:02.206Z,3.58
2023-02-26T17:09:41.104Z,2.28
2023-02-26T17:12:23.515Z,2.25
2023-02-26T17:15:01.112Z,2.53
2023-02-26T17:17:28.325Z,3.00
2023-02-26T17:19:55.127Z,2.33
2023-02-26T17:22:27.080Z,2.42
2023-02-26T17:24:53.692Z,3.15
2023-02-26T17:27:38.188Z,4.03
2023-02-26T17:30:06.076Z,2.92
2023-02-26T17:32:33.569Z,2.95
2023-02-26T17:35:00.247Z,2.75
2023-02-26T17:37:31.415Z,2.65
2023-02-26T17:39:59.535Z,1.85
2023-02-26T17:42:26.658Z,2.90
2023-02-26T17:44:55.239Z,2.58
2023-02-26T17:47:23.716Z,3.08
2023-02-26T17:49:50.266Z,5.38
2023-02-26T17:52:17.222Z,3.38
2023-02-26T17:54:43.870Z,4.22
2023-02-26T17:57:16.715Z,3.92
2023-02-26T17:59:43.276Z,3.63
2023-02-26T18:02:17.579Z,2.55
2023-02-26T18:04:44.249Z,3.40
2023-02-26T18:07:16.311Z,3.90
2023-02-26T18:09:43.916Z,3.83
2023-02-26T18:12:18.351Z,3.45
2023-02-26T18:14:45.165Z,4.25
2023-02-26T18:17:31.405Z,2.83
2023-02-26T18:19:57.996Z,2.40
2023-02-26T18:22:25.436Z,4.53
2023-02-26T18:24:52.822Z,2.40
2023-02-26T18:27:20.936Z,4.10
2023-02-26T18:29:47.478Z,2.97
2023-02-26T18:32:23.120Z,3.05
2023-02-26T18:34:51.416Z,2.53
2023-02-26T18:37:22.342Z,2.63
2023-02-26T18:42:21.276Z,3.92
2023-02-26T18:44:51.789Z,3.88
2023-02-26T18:47:19.574Z,2.00
2023-02-26T18:49:47.521Z,2.10
2023-02-26T18:52:14.704Z,3.80
2023-02-26T18:54:41.308Z,2.15
2023-02-26T18:57:09.421Z,2.03
2023-02-26T18:59:36.624Z,2.25
2023-02-26T19:02:05.327Z,4.07
2023-02-26T19:04:31.822Z,3.55
2023-02-26T19:06:58.385Z,4.10
2023-02-26T19:09:25.023Z,1.92
2023-02-26T19:11:51.540Z,3.22
2023-02-26T19:14:18.400Z,3.20
2023-02-26T19:16:44.884Z,2.83
2023-02-26T19:19:12.837Z,1.90
2023-02-26T19:21:40.244Z,4.10
2023-02-26T19:24:08.703Z,3.60
2023-02-26T19:26:36.453Z,2.95
2023-02-26T19:29:05.077Z,3.80
2023-02-26T19:31:32.269Z,3.25
2023-02-26T19:33:59.118Z,3.13
2023-02-26T19:36:26.395Z,3.30
2023-02-26T19:38:52.934Z,4.45
2023-02-26T19:41:20.002Z,2.22
2023-02-26T19:43:47.382Z,3.10
2023-02-26T19:46:14.970Z,5.85
2023-02-26T19:48:41.993Z,3.15
2023-02-26T19:51:08.980Z,3.67
2023-02-26T19:53:36.259Z,2.92
2023-02-26T19:56:04.152Z,3.28
2023-02-26T19:58:30.989Z,2.88
2023-02-26T20:00:58.768Z,3.78
2023-02-26T20:03:25.523Z,3.70
2023-02-26T20:05:52.891Z,3.20
2023-02-26T20:08:21.544Z,3.72
2023-02-26T20:10:51.946Z,5.38
2023-02-26T20:13:18.653Z,6.28
2023-02-26T20:15:45.408Z,3.45
2023-02-26T20:18:12.116Z,5.25
2023-02-26T20:20:38.598Z,4.28
2023-02-26T20:23:05.135Z,3.83
2023-02-26T20:25:31.634Z,3.85
2023-02-26T20:27:58.104Z,3.30
2023-02-26T20:30:24.650Z,4.07
2023-02-26T20:32:51.342Z,4.63
2023-02-26T20:35:18.228Z,2.88
2023-02-26T20:37:44.868Z,4.60
2023-02-26T20:40:12.591Z,4.30
2023-02-26T20:42:39.144Z,5.15
2023-02-26T20:45:07.956Z,5.15
2023-02-26T20:47:34.541Z,3.70
2023-02-26T20:50:01.039Z,4.90
2023-02-26T20:52:27.608Z,4.32
2023-02-26T20:54:54.080Z,7.25
2023-02-26T20:57:20.547Z,4.03
2023-02-26T20:59:47.311Z,4.43
2023-02-26T21:02:15.636Z,3.72
2023-02-26T21:04:42.303Z,4.07
2023-02-26T21:07:21.649Z,4.45
2023-02-26T21:09:49.394Z,3.80
2023-02-26T21:12:16.653Z,3.38
2023-02-26T21:14:43.570Z,8.68
2023-02-26T21:17:10.416Z,8.52
2023-02-26T21:19:38.065Z,5.30
2023-02-26T21:22:05.014Z,7.45
2023-02-26T21:24:31.520Z,8.30
2023-02-26T21:26:58.213Z,6.82
2023-02-26T21:29:25.005Z,6.28
2023-02-26T21:31:53.501Z,5.60
2023-02-26T21:34:33.146Z,6.07
2023-02-26T21:37:04.969Z,5.10
2023-02-26T21:39:32.424Z,9.50
2023-02-26T21:42:00.440Z,4.05
2023-02-26T21:44:27.486Z,5.15
2023-02-26T21:46:54.092Z,4.93
2023-02-26T21:49:20.638Z,4.15
2023-02-26T21:51:47.133Z,5.35
2023-02-26T21:54:13.610Z,5.10
2023-02-26T21:56:40.123Z,6.30
2023-02-26T21:59:07.036Z,4.13
2023-02-26T22:01:33.705Z,3.92
2023-02-26T22:04:00.696Z,5.75
2023-02-26T22:06:27.308Z,6.60
2023-02-26T22:08:54.133Z,6.22
2023-02-26T22:11:20.675Z,6.68
2023-02-26T22:13:48.669Z,9.10
2023-02-26T22:16:16.074Z,7.10
2023-02-26T22:18:42.694Z,6.43
2023-02-26T22:21:09.202Z,8.05
2023-02-26T22:23:36.279Z,7.53
2023-02-26T22:26:02.881Z,9.43
2023-02-26T22:28:29.786Z,9.02
2023-02-26T22:30:56.568Z,11.48
2023-02-26T22:33:23.752Z,10.77
2023-02-26T22:35:50.844Z,11.05
2023-02-26T22:38:17.698Z,10.80
2023-02-26T22:40:44.338Z,9.35
2023-02-26T22:43:10.910Z,9.85
2023-02-26T22:45:37.432Z,7.68
2023-02-26T22:48:04.037Z,11.15
2023-02-26T22:50:30.546Z,9.77
2023-02-26T22:52:57.068Z,10.68
2023-02-26T22:55:24.054Z,9.40
2023-02-26T22:57:50.748Z,7.40
2023-02-26T23:00:18.934Z,9.18
2023-02-26T23:02:46.860Z,11.23
2023-02-26T23:05:13.457Z,11.20
2023-02-26T23:07:40.610Z,7.32
2023-02-26T23:10:09.662Z,8.45
2023-02-26T23:12:36.143Z,7.15
2023-02-26T23:15:03.171Z,6.65
2023-02-26T23:17:30.283Z,6.50
2023-02-26T23:19:56.794Z,5.70
2023-02-26T23:22:23.293Z,7.35
2023-02-26T23:24:49.773Z,8.85
2023-02-26T23:27:16.486Z,9.10
2023-02-26T23:29:44.691Z,7.07
2023-02-26T23:32:12.331Z,5.70
2023-02-26T23:34:39.107Z,6.38
2023-02-26T23:37:05.733Z,4.70
2023-02-26T23:39:32.284Z,7.47
2023-02-26T23:41:59.041Z,4.00
2023-02-26T23:44:25.611Z,5.25
2023-02-26T23:46:52.215Z,5.15
2023-02-26T23:49:18.734Z,3.92
2023-02-26T23:51:46.077Z,3.70
2023-02-26T23:54:13.398Z,4.97
2023-02-26T23:56:40.307Z,5.07
2023-02-26T23:59:07.328Z,3.58
